createdAt,value
2024-04-25T00:00:20.011Z,1.30
2024-04-25T00:02:49.202Z,1.65
2024-04-25T00:05:15.999Z,1.60
2024-04-25T00:07:42.665Z,1.40
2024-04-25T00:10:09.781Z,0.85
2024-04-25T00:12:36.460Z,1.70
2024-04-25T00:15:04.014Z,1.30
2024-04-25T00:17:31.275Z,1.27
2024-04-25T00:19:57.939Z,1.23
2024-04-25T00:22:24.788Z,1.45
2024-04-25T00:24:51.427Z,1.48
2024-04-25T00:27:18.111Z,1.48
2024-04-25T00:29:44.941Z,1.38
2024-04-25T00:32:11.662Z,1.20
2024-04-25T00:34:38.394Z,2.33
2024-04-25T00:37:05.050Z,1.10
2024-04-25T00:39:31.796Z,1.23
2024-04-25T00:41:58.462Z,1.60
2024-04-25T00:44:26.318Z,1.38
2024-04-25T00:46:54.839Z,2.33
2024-04-25T00:49:21.873Z,1.60
2024-04-25T00:51:50.121Z,1.40
2024-04-25T00:54:17.385Z,1.33
2024-04-25T00:56:45.068Z,1.95
2024-04-25T00:59:13.340Z,1.45
2024-04-25T01:01:43.562Z,1.45
2024-04-25T01:04:11.754Z,1.40
2024-04-25T01:06:40.427Z,1.58
2024-04-25T01:09:07.780Z,1.17
2024-04-25T01:11:34.994Z,1.23
2024-04-25T01:14:01.975Z,1.33
2024-04-25T01:16:30.330Z,1.40
2024-04-25T01:18:57.064Z,1.25
2024-04-25T01:21:23.805Z,1.48
2024-04-25T01:23:52.783Z,1.48
2024-04-25T01:26:21.856Z,1.65
2024-04-25T01:28:49.619Z,1.58
2024-04-25T01:31:16.312Z,1.55
2024-04-25T01:33:44.616Z,1.77
2024-04-25T01:36:11.475Z,2.10
2024-04-25T01:38:38.286Z,1.80
2024-04-25T01:41:05.376Z,1.75
2024-04-25T01:43:32.063Z,1.83
2024-04-25T01:45:58.715Z,1.90
2024-04-25T01:48:25.574Z,2.13
2024-04-25T01:50:52.901Z,1.70
2024-04-25T01:53:19.671Z,1.88
2024-04-25T01:55:46.329Z,1.63
2024-04-25T01:58:12.957Z,2.58
2024-04-25T02:00:39.629Z,1.58
2024-04-25T02:03:06.604Z,1.40
2024-04-25T02:05:33.464Z,1.90
2024-04-25T02:08:00.176Z,1.80
2024-04-25T02:10:26.820Z,1.98
2024-04-25T02:12:53.431Z,1.83
2024-04-25T02:15:20.103Z,1.88
2024-04-25T02:17:47.235Z,2.10
2024-04-25T02:20:32.248Z,1.73
2024-04-25T02:25:44.372Z,2.33
2024-04-25T02:28:11.046Z,1.90
2024-04-25T02:30:37.858Z,1.85
2024-04-25T02:33:04.885Z,1.77
2024-04-25T02:35:31.646Z,1.70
2024-04-25T02:37:58.372Z,2.45
2024-04-25T02:40:25.065Z,2.13
2024-04-25T02:42:51.804Z,2.03
2024-04-25T02:45:18.782Z,2.10
2024-04-25T02:47:45.547Z,2.78
2024-04-25T02:50:12.779Z,2.03
2024-04-25T02:52:39.983Z,2.30
2024-04-25T02:55:06.981Z,2.10
2024-04-25T02:57:33.744Z,2.03
2024-04-25T03:00:00.593Z,2.45
2024-04-25T03:02:27.872Z,1.73
2024-04-25T03:04:54.593Z,2.17
2024-04-25T03:07:21.265Z,1.75
2024-04-25T03:09:48.016Z,1.88
2024-04-25T03:12:14.676Z,1.73
2024-04-25T03:14:42.695Z,2.55
2024-04-25T03:17:09.419Z,1.80
2024-04-25T03:19:36.110Z,1.80
2024-04-25T03:22:02.760Z,2.22
2024-04-25T03:24:29.474Z,1.48
2024-04-25T03:26:56.155Z,2.13
2024-04-25T03:29:22.788Z,1.70
2024-04-25T03:31:50.133Z,1.90
2024-04-25T03:34:17.485Z,2.10
2024-04-25T03:36:44.209Z,1.60
2024-04-25T03:39:10.904Z,1.90
2024-04-25T03:41:37.657Z,1.70
2024-04-25T03:44:04.713Z,2.15
2024-04-25T03:46:31.448Z,1.90
2024-04-25T03:48:58.314Z,1.70
2024-04-25T03:51:25.032Z,1.60
2024-04-25T03:53:52.392Z,1.75
2024-04-25T03:56:19.235Z,1.50
2024-04-25T03:58:45.922Z,1.55
2024-04-25T04:01:15.568Z,1.40
2024-04-25T04:03:42.471Z,1.58
2024-04-25T04:06:09.149Z,1.45
2024-04-25T04:08:37.517Z,2.22
2024-04-25T04:11:04.592Z,1.65
2024-04-25T04:13:33.256Z,1.35
2024-04-25T04:15:59.968Z,1.30
2024-04-25T04:18:26.662Z,2.55
2024-04-25T04:20:53.468Z,2.05
2024-04-25T04:23:20.142Z,1.40
2024-04-25T04:25:46.901Z,1.15
2024-04-25T04:28:15.682Z,1.13
2024-04-25T04:30:42.977Z,1.50
2024-04-25T04:33:09.874Z,1.20
2024-04-25T04:35:36.759Z,1.20
2024-04-25T04:38:03.541Z,1.02
2024-04-25T04:40:30.245Z,1.63
2024-04-25T04:42:56.948Z,1.73
2024-04-25T04:45:24.074Z,1.30
2024-04-25T04:47:50.819Z,1.10
2024-04-25T04:50:20.466Z,1.00
2024-04-25T04:52:48.153Z,1.13
2024-04-25T04:55:15.301Z,1.30
2024-04-25T04:57:42.019Z,1.15
2024-04-25T05:00:10.236Z,1.35
2024-04-25T05:02:37.023Z,1.17
2024-04-25T05:05:03.890Z,1.30
2024-04-25T05:07:30.501Z,1.30
2024-04-25T05:09:57.152Z,1.40
2024-04-25T05:12:26.713Z,1.20
2024-04-25T05:14:54.900Z,1.77
2024-04-25T05:17:21.659Z,1.58
2024-04-25T05:19:48.335Z,1.50
2024-04-25T05:22:15.287Z,1.40
2024-04-25T05:24:41.951Z,1.45
2024-04-25T05:27:08.581Z,1.80
2024-04-25T05:29:36.851Z,2.15
2024-04-25T05:32:04.798Z,1.10
2024-04-25T05:34:31.638Z,1.77
2024-04-25T05:36:58.596Z,1.23
2024-04-25T05:39:26.185Z,1.13
2024-04-25T05:41:52.962Z,0.93
2024-04-25T05:44:19.935Z,1.42
2024-04-25T05:46:46.657Z,1.55
2024-04-25T05:49:13.519Z,3.92
2024-04-25T05:51:40.146Z,1.40
2024-04-25T05:54:06.863Z,1.15
2024-04-25T05:56:33.568Z,1.08
2024-04-25T05:59:00.205Z,1.23
2024-04-25T06:01:26.893Z,1.52
2024-04-25T06:03:53.602Z,1.40
2024-04-25T06:06:20.332Z,1.55
2024-04-25T06:08:47.350Z,1.58
2024-04-25T06:11:14.151Z,2.13
2024-04-25T06:13:42.591Z,1.30
2024-04-25T06:16:09.304Z,1.27
2024-04-25T06:18:35.920Z,1.77
2024-04-25T06:21:02.715Z,1.85
2024-04-25T06:23:29.518Z,1.40
2024-04-25T06:25:56.203Z,1.38
2024-04-25T06:28:23.389Z,1.67
2024-04-25T06:30:50.019Z,1.20
2024-04-25T06:33:16.797Z,1.92
2024-04-25T06:35:43.733Z,1.55
2024-04-25T06:38:15.584Z,1.40
2024-04-25T06:40:43.751Z,2.03
2024-04-25T06:43:10.639Z,1.00
2024-04-25T06:45:38.208Z,1.75
2024-04-25T06:48:06.083Z,1.30
2024-04-25T06:50:32.902Z,1.20
2024-04-25T06:52:59.583Z,1.20
2024-04-25T06:55:26.221Z,1.55
2024-04-25T06:57:54.902Z,1.38
2024-04-25T07:00:22.576Z,1.63
2024-04-25T07:02:49.251Z,1.23
2024-04-25T07:05:15.896Z,1.70
2024-04-25T07:07:42.735Z,1.67
2024-04-25T07:10:09.534Z,1.30
2024-04-25T07:12:36.922Z,0.98
2024-04-25T07:15:07.738Z,1.55
2024-04-25T07:17:35.324Z,1.48
2024-04-25T07:20:02.533Z,1.55
2024-04-25T07:22:29.170Z,1.50
2024-04-25T07:24:57.182Z,2.15
2024-04-25T07:27:23.903Z,1.70
2024-04-25T07:29:50.696Z,1.70
2024-04-25T07:32:17.752Z,1.60
2024-04-25T07:34:45.118Z,1.55
2024-04-25T07:37:12.521Z,1.58
2024-04-25T07:39:39.327Z,1.77
2024-04-25T07:42:06.138Z,1.52
2024-04-25T07:44:32.972Z,1.50
2024-04-25T07:46:59.674Z,2.25
2024-04-25T07:49:26.296Z,1.70
2024-04-25T07:51:52.971Z,2.08
2024-04-25T07:54:20.002Z,1.70
2024-04-25T07:56:46.692Z,2.15
2024-04-25T07:59:13.575Z,1.90
2024-04-25T08:01:40.234Z,2.05
2024-04-25T08:04:07.196Z,1.80
2024-04-25T08:06:35.892Z,1.55
2024-04-25T08:09:02.725Z,2.22
2024-04-25T08:11:30.123Z,2.30
2024-04-25T08:13:59.522Z,1.98
2024-04-25T08:16:28.195Z,1.70
2024-04-25T08:18:55.798Z,1.33
2024-04-25T08:21:25.768Z,2.00
2024-04-25T08:23:52.509Z,1.33
2024-04-25T08:26:19.205Z,1.88
2024-04-25T08:28:45.885Z,1.40
2024-04-25T08:31:12.528Z,1.60
2024-04-25T08:33:39.239Z,1.20
2024-04-25T08:36:06.263Z,1.50
2024-04-25T08:38:35.999Z,1.50
2024-04-25T08:41:04.033Z,1.15
2024-04-25T08:43:31.224Z,1.08
2024-04-25T08:45:58.396Z,1.17
2024-04-25T08:48:26.938Z,1.02
2024-04-25T08:50:55.552Z,1.23
2024-04-25T08:53:26.601Z,1.55
2024-04-25T08:55:55.715Z,1.00
2024-04-25T08:58:22.419Z,1.20
2024-04-25T09:00:49.187Z,1.13
2024-04-25T09:03:16.210Z,0.82
2024-04-25T09:05:43.458Z,1.00
2024-04-25T09:08:13.960Z,1.15
2024-04-25T09:10:41.760Z,0.90
2024-04-25T09:13:08.652Z,1.00
2024-04-25T09:15:35.601Z,0.90
2024-04-25T09:18:03.915Z,1.33
2024-04-25T09:20:32.562Z,1.35
2024-04-25T09:23:00.889Z,1.17
2024-04-25T09:25:28.981Z,1.05
2024-04-25T09:27:58.649Z,0.90
2024-04-25T09:30:26.090Z,1.00
2024-04-25T09:32:52.830Z,1.33
2024-04-25T09:35:19.675Z,0.80
2024-04-25T09:37:46.531Z,0.73
2024-04-25T09:40:13.238Z,1.08
2024-04-25T09:42:40.919Z,0.80
2024-04-25T09:45:10.759Z,1.27
2024-04-25T09:47:44.174Z,0.93
2024-04-25T09:50:26.099Z,1.05
2024-04-25T09:53:11.882Z,0.70
2024-04-25T09:55:41.044Z,0.77
2024-04-25T09:58:26.882Z,0.60
2024-04-25T10:00:55.817Z,0.80
2024-04-25T10:03:23.829Z,1.33
2024-04-25T10:05:51.135Z,0.75
2024-04-25T10:08:18.099Z,0.75
2024-04-25T10:10:45.154Z,0.65
2024-04-25T10:13:15.922Z,1.10
2024-04-25T10:15:42.713Z,0.80
2024-04-25T10:18:09.609Z,1.20
2024-04-25T10:20:37.392Z,0.80
2024-04-25T10:23:05.850Z,1.02
2024-04-25T10:25:32.755Z,0.90
2024-04-25T10:28:02.103Z,0.70
2024-04-25T10:30:28.860Z,0.90
2024-04-25T10:32:56.703Z,1.00
2024-04-25T10:35:23.523Z,1.10
2024-04-25T10:37:54.135Z,0.80
2024-04-25T10:40:22.024Z,0.63
2024-04-25T10:43:04.303Z,0.70
2024-04-25T10:45:33.934Z,0.70
2024-04-25T10:48:01.412Z,0.70
2024-04-25T10:50:28.697Z,0.95
2024-04-25T10:52:56.952Z,0.60
2024-04-25T10:55:24.858Z,0.52
2024-04-25T10:57:51.548Z,0.60
2024-04-25T11:00:18.295Z,0.60
2024-04-25T11:02:45.394Z,0.60
2024-04-25T11:05:12.521Z,0.75
2024-04-25T11:07:40.787Z,0.75
2024-04-25T11:10:10.292Z,1.05
2024-04-25T11:12:38.667Z,0.70
2024-04-25T11:15:15.596Z,1.00
2024-04-25T11:17:51.886Z,1.08
2024-04-25T11:20:24.937Z,0.85
2024-04-25T11:22:52.789Z,0.60
2024-04-25T11:25:21.027Z,1.08
2024-04-25T11:27:49.445Z,0.93
2024-04-25T11:30:18.358Z,0.77
2024-04-25T11:32:46.894Z,1.17
2024-04-25T11:35:17.742Z,0.88
2024-04-25T11:37:44.424Z,0.60
2024-04-25T11:40:12.011Z,0.70
2024-04-25T11:42:38.866Z,0.80
2024-04-25T11:45:06.887Z,0.60
2024-04-25T11:47:33.760Z,0.85
2024-04-25T11:50:00.490Z,1.00
2024-04-25T11:52:27.096Z,0.70
2024-04-25T11:54:53.749Z,0.85
2024-04-25T11:57:20.426Z,0.70
2024-04-25T11:59:47.105Z,0.80
2024-04-25T12:02:15.500Z,0.77
2024-04-25T12:04:42.492Z,0.50
2024-04-25T12:07:09.301Z,0.70
2024-04-25T12:09:36.030Z,0.75
2024-04-25T12:12:02.836Z,0.70
2024-04-25T12:14:29.584Z,0.70
2024-04-25T12:16:56.324Z,0.93
2024-04-25T12:19:24.149Z,0.60
2024-04-25T12:21:50.815Z,0.70
2024-04-25T12:24:17.574Z,1.02
2024-04-25T12:26:45.941Z,0.73
2024-04-25T12:29:13.061Z,0.93
2024-04-25T12:31:39.912Z,0.73
2024-04-25T12:34:09.655Z,0.95
2024-04-25T12:36:38.450Z,0.70
2024-04-25T12:39:05.956Z,0.73
2024-04-25T12:41:32.698Z,1.10
2024-04-25T12:43:59.354Z,1.02
2024-04-25T12:46:25.992Z,0.98
2024-04-25T12:48:52.852Z,0.75
2024-04-25T12:51:19.655Z,0.68
2024-04-25T12:53:46.497Z,0.60
2024-04-25T12:56:13.319Z,0.80
2024-04-25T12:58:42.227Z,0.50
2024-04-25T13:01:09.682Z,0.68
2024-04-25T13:03:36.551Z,0.57
2024-04-25T13:06:03.283Z,0.88
2024-04-25T13:08:29.902Z,0.52
2024-04-25T13:10:56.595Z,0.95
2024-04-25T13:13:23.921Z,0.50
2024-04-25T13:15:50.572Z,0.60
2024-04-25T13:18:19.336Z,1.30
2024-04-25T13:20:46.444Z,0.77
2024-04-25T13:23:13.208Z,0.75
2024-04-25T13:25:39.903Z,0.70
2024-04-25T13:28:06.806Z,0.88
2024-04-25T13:30:33.666Z,0.60
2024-04-25T13:33:00.588Z,0.80
2024-04-25T13:35:27.668Z,0.50
2024-04-25T13:37:56.157Z,0.73
2024-04-25T13:40:24.181Z,0.50
2024-04-25T13:42:53.559Z,0.50
2024-04-25T13:45:20.431Z,0.80
2024-04-25T13:47:47.703Z,0.65
2024-04-25T13:50:18.779Z,0.70
2024-04-25T13:52:47.131Z,0.43
2024-04-25T13:55:15.726Z,0.77
2024-04-25T13:57:42.611Z,0.52
2024-04-25T14:00:09.927Z,1.17
2024-04-25T14:02:36.638Z,0.50
2024-04-25T14:05:03.432Z,0.82
2024-04-25T14:07:30.077Z,0.50
2024-04-25T14:09:56.762Z,0.60
2024-04-25T14:12:26.523Z,0.93
2024-04-25T14:14:54.271Z,0.80
2024-04-25T14:17:20.974Z,1.35
2024-04-25T14:19:47.633Z,0.98
2024-04-25T14:22:14.303Z,0.70
2024-04-25T14:24:41.944Z,1.00
2024-04-25T14:27:27.262Z,0.60
2024-04-25T14:29:53.971Z,0.93
2024-04-25T14:32:20.962Z,1.27
2024-04-25T14:34:48.485Z,0.88
2024-04-25T14:37:18.026Z,0.93
2024-04-25T14:39:44.760Z,1.10
2024-04-25T14:42:11.444Z,0.80
2024-04-25T14:44:41.775Z,0.50
2024-04-25T14:47:09.165Z,0.63
2024-04-25T14:49:35.952Z,0.50
2024-04-25T14:52:02.621Z,1.08
2024-04-25T14:54:29.311Z,0.50
2024-04-25T14:56:55.973Z,0.60
2024-04-25T14:59:24.004Z,1.23
2024-04-25T15:01:52.852Z,0.50
2024-04-25T15:04:19.497Z,0.70
2024-04-25T15:06:46.149Z,0.50
2024-04-25T15:09:13.683Z,0.50
2024-04-25T15:11:40.414Z,0.80
2024-04-25T15:14:07.138Z,0.60
2024-04-25T15:16:33.853Z,0.90
2024-04-25T15:19:00.510Z,0.50
2024-04-25T15:21:29.679Z,0.80
2024-04-25T15:23:56.431Z,0.55
2024-04-25T15:26:23.456Z,0.75
2024-04-25T15:28:50.103Z,0.45
2024-04-25T15:31:20.243Z,0.60
2024-04-25T15:33:46.963Z,0.65
2024-04-25T15:36:13.694Z,0.60
2024-04-25T15:38:40.396Z,0.63
2024-04-25T15:41:09.878Z,0.50
2024-04-25T15:43:38.232Z,0.60
2024-04-25T15:46:05.084Z,0.82
2024-04-25T15:48:31.855Z,0.60
2024-04-25T15:50:58.607Z,0.63
2024-04-25T15:53:25.642Z,0.60
2024-04-25T15:55:53.782Z,0.70
2024-04-25T15:58:23.188Z,0.80
2024-04-25T16:00:49.885Z,0.52
2024-04-25T16:03:16.696Z,0.45
2024-04-25T16:05:43.410Z,0.85
2024-04-25T16:08:12.428Z,0.40
2024-04-25T16:10:39.204Z,0.95
2024-04-25T16:13:05.890Z,0.50
2024-04-25T16:15:34.544Z,0.40
2024-04-25T16:18:01.411Z,0.98
2024-04-25T16:20:28.166Z,0.52
2024-04-25T16:22:56.422Z,0.50
2024-04-25T16:25:23.085Z,0.50
2024-04-25T16:27:49.777Z,0.70
2024-04-25T16:30:16.601Z,0.50
2024-04-25T16:32:43.653Z,0.80
2024-04-25T16:35:10.459Z,0.63
2024-04-25T16:37:37.136Z,0.70
2024-04-25T16:40:04.072Z,0.57
2024-04-25T16:42:30.736Z,0.63
2024-04-25T16:44:57.849Z,0.57
2024-04-25T16:47:24.630Z,0.70
2024-04-25T16:49:51.367Z,0.90
2024-04-25T16:52:18.039Z,1.08
2024-04-25T16:54:44.696Z,0.63
2024-04-25T16:57:11.345Z,0.60
2024-04-25T16:59:38.107Z,0.70
2024-04-25T17:02:06.928Z,0.43
2024-04-25T17:04:36.045Z,0.63
2024-04-25T17:07:02.871Z,0.50
2024-04-25T17:09:29.829Z,0.73
2024-04-25T17:11:56.520Z,0.57
2024-04-25T17:14:25.298Z,0.68
2024-04-25T17:16:52.192Z,0.60
2024-04-25T17:19:18.891Z,0.88
2024-04-25T17:21:45.734Z,0.93
2024-04-25T17:24:13.616Z,0.85
2024-04-25T17:26:41.873Z,1.35
2024-04-25T17:29:09.227Z,1.00
2024-04-25T17:31:38.204Z,0.60
2024-04-25T17:34:05.507Z,0.70
2024-04-25T17:36:32.475Z,0.75
2024-04-25T17:38:59.136Z,0.65
2024-04-25T17:41:26.099Z,0.55
2024-04-25T17:43:53.476Z,0.80
2024-04-25T17:46:20.189Z,0.80
2024-04-25T17:48:47.087Z,1.20
2024-04-25T17:51:25.229Z,0.90
2024-04-25T17:53:53.560Z,1.05
2024-04-25T17:56:20.760Z,0.85
2024-04-25T17:58:47.475Z,0.90
2024-04-25T18:01:15.263Z,1.20
2024-04-25T18:03:42.102Z,0.70
2024-04-25T18:06:10.552Z,1.80
2024-04-25T18:08:38.351Z,0.85
2024-04-25T18:11:05.365Z,1.30
2024-04-25T18:13:33.163Z,1.00
2024-04-25T18:15:59.892Z,0.90
2024-04-25T18:18:26.638Z,1.15
2024-04-25T18:20:53.471Z,0.70
2024-04-25T18:23:20.214Z,0.70
2024-04-25T18:25:46.958Z,0.88
2024-04-25T18:28:13.718Z,1.15
2024-04-25T18:30:40.372Z,1.08
2024-04-25T18:33:07.171Z,1.25
2024-04-25T18:35:34.461Z,1.60
2024-04-25T18:38:01.238Z,1.60
2024-04-25T18:40:28.699Z,1.90
2024-04-25T18:42:55.701Z,2.25
2024-04-25T18:45:22.382Z,1.67
2024-04-25T18:47:49.170Z,2.70
2024-04-25T18:50:17.023Z,2.20
2024-04-25T18:52:45.262Z,3.13
2024-04-25T18:55:12.628Z,3.05
2024-04-25T18:57:39.306Z,2.58
2024-04-25T19:00:07.093Z,3.00
2024-04-25T19:02:34.343Z,3.35
2024-04-25T19:05:01.464Z,3.92
2024-04-25T19:07:28.088Z,4.35
2024-04-25T19:09:54.727Z,5.05
2024-04-25T19:12:21.482Z,4.55
2024-04-25T19:14:48.699Z,4.72
2024-04-25T19:17:15.835Z,4.07
2024-04-25T19:19:42.529Z,3.42
2024-04-25T19:22:10.582Z,4.00
2024-04-25T19:24:37.718Z,3.85
2024-04-25T19:27:05.724Z,3.97
2024-04-25T19:29:35.183Z,3.35
2024-04-25T19:32:03.301Z,3.20
2024-04-25T19:34:31.062Z,2.95
2024-04-25T19:36:58.188Z,2.78
2024-04-25T19:39:24.914Z,3.15
2024-04-25T19:41:51.750Z,3.28
2024-04-25T19:44:19.913Z,3.33
2024-04-25T19:46:46.888Z,2.75
2024-04-25T19:49:14.223Z,2.65
2024-04-25T19:51:42.039Z,2.67
2024-04-25T19:54:09.481Z,2.40
2024-04-25T19:56:36.109Z,2.63
2024-04-25T19:59:02.735Z,2.20
2024-04-25T20:01:30.169Z,2.30
2024-04-25T20:03:56.925Z,1.92
2024-04-25T20:06:25.858Z,2.63
2024-04-25T20:08:52.740Z,1.92
2024-04-25T20:11:21.770Z,2.28
2024-04-25T20:13:48.605Z,2.20
2024-04-25T20:16:19.138Z,2.55
2024-04-25T20:19:04.336Z,2.05
2024-04-25T20:21:31.499Z,2.10
2024-04-25T20:24:00.461Z,2.10
2024-04-25T20:26:29.969Z,2.05
2024-04-25T20:28:56.732Z,1.70
2024-04-25T20:31:24.719Z,1.80
2024-04-25T20:33:51.488Z,1.88
2024-04-25T20:36:18.322Z,2.17
2024-04-25T20:38:46.142Z,1.67
2024-04-25T20:41:13.322Z,1.58
2024-04-25T20:43:40.388Z,1.30
2024-04-25T20:46:08.130Z,1.30
2024-04-25T20:48:35.155Z,1.15
2024-04-25T20:51:02.398Z,1.67
2024-04-25T20:53:29.180Z,1.58
2024-04-25T20:55:57.879Z,1.50
2024-04-25T20:58:27.558Z,1.08
2024-04-25T21:00:56.086Z,1.30
2024-04-25T21:03:22.877Z,1.58
2024-04-25T21:05:49.734Z,2.25
2024-04-25T21:08:16.607Z,1.58
2024-04-25T21:10:43.596Z,2.00
2024-04-25T21:13:10.337Z,1.63
2024-04-25T21:15:36.953Z,1.67
2024-04-25T21:18:03.767Z,1.25
2024-04-25T21:20:32.384Z,1.58
2024-04-25T21:22:59.131Z,1.45
2024-04-25T21:25:25.811Z,1.73
2024-04-25T21:27:53.253Z,2.00
2024-04-25T21:30:20.021Z,1.95
2024-04-25T21:32:46.863Z,2.17
2024-04-25T21:35:13.783Z,2.30
2024-04-25T21:37:40.424Z,2.10
2024-04-25T21:40:07.577Z,1.52
2024-04-25T21:42:34.247Z,1.88
2024-04-25T21:45:03.267Z,1.88
2024-04-25T21:47:30.091Z,1.63
2024-04-25T21:49:56.809Z,1.48
2024-04-25T21:52:23.442Z,1.30
2024-04-25T21:54:50.079Z,1.60
2024-04-25T21:57:18.800Z,1.00
2024-04-25T21:59:46.546Z,1.20
2024-04-25T22:02:13.408Z,1.45
2024-04-25T22:04:40.221Z,1.55
2024-04-25T22:07:06.969Z,1.48
2024-04-25T22:09:33.647Z,1.80
2024-04-25T22:12:00.471Z,1.85
2024-04-25T22:14:27.443Z,1.55
2024-04-25T22:16:55.209Z,1.65
2024-04-25T22:19:23.440Z,1.50
2024-04-25T22:21:50.990Z,1.33
2024-04-25T22:24:20.690Z,1.52
2024-04-25T22:26:48.280Z,1.70
2024-04-25T22:29:15.272Z,1.92
2024-04-25T22:31:42.016Z,1.80
2024-04-25T22:34:08.897Z,1.60
2024-04-25T22:36:35.580Z,1.67
2024-04-25T22:39:02.339Z,1.70
2024-04-25T22:41:29.118Z,2.17
2024-04-25T22:43:55.842Z,1.77
2024-04-25T22:46:22.482Z,1.55
2024-04-25T22:48:49.476Z,1.80
2024-04-25T22:51:19.608Z,1.60
2024-04-25T22:53:46.279Z,1.98
2024-04-25T22:56:13.069Z,1.88
2024-04-25T22:58:39.776Z,1.70
2024-04-25T23:01:06.486Z,1.30
2024-04-25T23:03:33.303Z,1.73
2024-04-25T23:06:00.067Z,1.77
2024-04-25T23:08:26.882Z,1.38
2024-04-25T23:10:53.635Z,2.38
2024-04-25T23:13:20.747Z,1.60
2024-04-25T23:15:47.571Z,1.83
2024-04-25T23:18:14.605Z,1.60
2024-04-25T23:20:41.509Z,1.75
2024-04-25T23:23:08.215Z,1.88
2024-04-25T23:25:34.941Z,2.67
2024-04-25T23:28:01.704Z,2.00
2024-04-25T23:30:28.424Z,1.70
2024-04-25T23:32:55.398Z,1.73
2024-04-25T23:35:22.387Z,2.10
2024-04-25T23:37:49.189Z,2.05
2024-04-25T23:40:17.241Z,1.60
2024-04-25T23:42:44.047Z,1.55
2024-04-25T23:45:10.841Z,2.03
2024-04-25T23:47:37.586Z,2.60
2024-04-25T23:50:04.618Z,2.60
2024-04-25T23:52:31.337Z,2.08
2024-04-25T23:54:58.068Z,1.75
2024-04-25T23:57:25.336Z,1.85
2024-04-25T23:59:52.340Z,2.15
